Time;durP1;ratioP1;P1;durP2;ratioP2;P2;SDS_P1;SDS_P2;PMS_P1;PMS_P2;Temp;Humidity;BMP_temperature;BMP_pressure;BME280_temperature;BME280_humidity;BME280_pressure;Samples;Min_cycle;Max_cycle;Signal;HPM_P1;HPM_P2
2021/01/05 00:00:36;;;;;;;;;;;2.60;99.90;;;;;;5054424;28;19937;-86
2021/01/05 00:03:05;;;;;;;;;;;2.60;99.90;;;;;;5063969;28;20407;-86
2021/01/05 00:05:33;;;;;;;;;;;2.60;99.90;;;;;;5054006;28;19955;-86
2021/01/05 00:08:01;;;;;;;;;;;2.60;99.90;;;;;;5067003;28;19955;-85
2021/01/05 00:10:32;;;;;;;;;;;2.60;99.90;;;;;;5082153;28;19915;-86
2021/01/05 00:13:01;;;;;;;;;;;2.60;99.90;;;;;;5131758;27;19973;-88
2021/01/05 00:15:29;;;;;;;;;;;2.60;99.90;;;;;;5120435;27;19907;-86
2021/01/05 00:18:00;;;;;;;;;;;2.60;99.90;;;;;;5138503;27;20002;-87
2021/01/05 00:20:32;;;;;;;;;;;2.60;99.90;;;;;;5120041;27;19915;-87
2021/01/05 00:22:59;;;;;;;;;;;2.60;99.90;;;;;;5120295;27;20348;-87
2021/01/05 00:25:27;;;;;;;;;;;2.60;99.90;;;;;;5120531;27;19964;-87
2021/01/05 00:27:55;;;;;;;;;;;2.60;99.90;;;;;;5119833;27;19914;-87
2021/01/05 00:30:22;;;;;;;;;;;2.60;99.90;;;;;;5138306;27;19914;-86
2021/01/05 00:32:55;;;;;;;;;;;2.60;99.90;;;;;;5137816;27;19911;-87
2021/01/05 00:35:30;;;;;;;;;;;2.60;99.90;;;;;;5119369;27;20797;-86
2021/01/05 00:37:59;;;;;;;;;;;2.60;99.90;;;;;;5138143;27;19908;-86
2021/01/05 00:40:25;;;;;;;;;;;2.60;99.90;;;;;;5119577;27;20383;-86
2021/01/05 00:43:01;;;;;;;;;;;2.60;99.90;;;;;;5137624;27;19914;-87
2021/01/05 00:45:31;;;;;;;;;;;2.60;99.90;;;;;;5137681;27;19942;-88
2021/01/05 00:48:08;;;;;;;;;;;2.50;99.90;;;;;;5119706;27;20383;-86
2021/01/05 00:50:34;;;;;;;;;;;2.60;99.90;;;;;;5119619;27;20383;-87
2021/01/05 00:53:16;;;;;;;;;;;2.60;99.90;;;;;;5119466;27;19919;-86
2021/01/05 00:55:45;;;;;;;;;;;2.50;99.90;;;;;;5117940;27;19907;-87
2021/01/05 00:58:26;;;;;;;;;;;2.60;99.90;;;;;;5134132;27;19953;-87
2021/01/05 01:01:00;;;;;;;;;;;2.60;99.90;;;;;;5137319;27;19915;-87
2021/01/05 01:03:28;;;;;;;;;;;2.60;99.90;;;;;;5119444;27;19947;-87
2021/01/05 01:05:57;;;;;;;;;;;2.60;99.90;;;;;;5133608;27;19950;-87
2021/01/05 01:08:33;;;;;;;;;;;2.60;99.90;;;;;;5114026;27;19935;-87
2021/01/05 01:11:09;;;;;;;;;;;2.60;99.90;;;;;;5119420;27;19958;-86
2021/01/05 01:13:41;;;;;;;;;;;2.50;99.90;;;;;;5117267;27;19915;-86
2021/01/05 01:16:15;;;;;;;;;;;2.60;99.90;;;;;;5134943;27;19935;-87
2021/01/05 01:18:40;;;;;;;;;;;2.60;99.90;;;;;;5037124;28;19909;-86
2021/01/05 01:21:13;;;;;;;;;;;2.60;99.90;;;;;;5053685;28;19915;-87
2021/01/05 01:23:39;;;;;;;;;;;2.50;99.90;;;;;;5052905;28;19924;-86
2021/01/05 01:26:12;;;;;;;;;;;2.60;99.90;;;;;;5050565;28;20443;-86
2021/01/05 01:28:43;;;;;;;;;;;2.60;99.90;;;;;;5054247;28;19962;-87
2021/01/05 01:31:09;;;;;;;;;;;2.60;99.90;;;;;;5053776;28;19920;-85
2021/01/05 01:33:34;;;;;;;;;;;2.60;99.90;;;;;;5052704;28;19916;-86
2021/01/05 01:36:11;;;;;;;;;;;2.50;99.90;;;;;;5053276;28;19909;-88
2021/01/05 01:38:42;;;;;;;;;;;2.60;99.90;;;;;;5036667;28;19908;-86
2021/01/05 01:41:13;;;;;;;;;;;2.60;99.90;;;;;;5053455;28;19909;-86
2021/01/05 01:43:43;;;;;;;;;;;2.60;99.90;;;;;;5052263;28;19909;-87
2021/01/05 01:46:11;;;;;;;;;;;2.60;99.90;;;;;;5053221;28;19913;-86
2021/01/05 01:48:42;;;;;;;;;;;2.60;99.90;;;;;;5050314;28;20011;-86
2021/01/05 01:51:22;;;;;;;;;;;2.60;99.90;;;;;;5053642;28;20008;-86
2021/01/05 01:54:06;;;;;;;;;;;2.60;99.90;;;;;;5052007;28;20385;-86
2021/01/05 01:56:45;;;;;;;;;;;2.60;99.90;;;;;;5096918;28;19961;-86
2021/01/05 01:59:25;;;;;;;;;;;2.60;99.90;;;;;;5116112;28;19961;-87
2021/01/05 02:02:04;;;;;;;;;;;2.60;99.90;;;;;;5097817;28;20004;-86
2021/01/05 02:04:35;;;;;;;;;;;2.60;99.90;;;;;;5097280;28;19933;-86
2021/01/05 02:07:23;;;;;;;;;;;2.60;99.90;;;;;;5097084;28;19929;-86
2021/01/05 02:09:54;;;;;;;;;;;2.60;99.90;;;;;;5067222;28;19913;-86
2021/01/05 02:12:32;;;;;;;;;;;2.60;99.90;;;;;;5116313;28;19954;-86
2021/01/05 02:15:03;;;;;;;;;;;2.60;99.90;;;;;;5097210;28;20384;-86
2021/01/05 02:17:37;;;;;;;;;;;2.70;99.90;;;;;;5115248;28;20342;-86
2021/01/05 02:20:11;;;;;;;;;;;2.70;99.90;;;;;;5115819;28;19946;-86
2021/01/05 02:23:00;;;;;;;;;;;2.60;99.90;;;;;;5120701;27;19972;-86
2021/01/05 02:25:35;;;;;;;;;;;2.60;99.90;;;;;;5117946;27;19908;-86
2021/01/05 02:28:06;;;;;;;;;;;2.70;99.90;;;;;;5136129;27;19958;-85
2021/01/05 02:30:36;;;;;;;;;;;2.70;99.90;;;;;;5136042;27;19908;-86
2021/01/05 02:33:19;;;;;;;;;;;2.70;99.90;;;;;;5117465;27;19915;-85
2021/01/05 02:35:52;;;;;;;;;;;2.60;99.90;;;;;;5136072;27;19914;-86
2021/01/05 02:38:39;;;;;;;;;;;2.70;99.90;;;;;;5116800;27;19907;-86
2021/01/05 02:41:07;;;;;;;;;;;2.70;99.90;;;;;;5135700;27;20010;-86
2021/01/05 02:43:39;;;;;;;;;;;2.70;99.90;;;;;;5135472;27;19907;-86
2021/01/05 02:46:13;;;;;;;;;;;2.70;99.90;;;;;;5135699;27;19907;-84
2021/01/05 02:48:51;;;;;;;;;;;2.70;99.90;;;;;;5092307;28;20319;-86
2021/01/05 02:51:32;;;;;;;;;;;2.70;99.90;;;;;;5075975;28;19962;-85
2021/01/05 02:54:27;;;;;;;;;;;2.70;99.90;;;;;;5092269;28;19924;-86
2021/01/05 02:57:30;;;;;;;;;;;2.70;99.90;;;;;;5075392;28;19930;-85
2021/01/05 02:59:56;;;;;;;;;;;2.70;99.90;;;;;;5091292;28;19908;-87
2021/01/05 03:02:39;;;;;;;;;;;2.70;99.90;;;;;;5092208;28;20023;-87
2021/01/05 03:05:11;;;;;;;;;;;2.70;99.90;;;;;;5075346;28;19995;-87
2021/01/05 03:07:42;;;;;;;;;;;2.70;99.90;;;;;;5091950;28;19947;-87
2021/01/05 03:10:12;;;;;;;;;;;2.70;99.90;;;;;;5091959;28;19908;-86
2021/01/05 03:12:54;;;;;;;;;;;2.70;99.90;;;;;;5075613;28;19943;-87
2021/01/05 03:15:22;;;;;;;;;;;2.70;99.90;;;;;;5075152;28;20005;-86
2021/01/05 03:17:59;;;;;;;;;;;2.70;99.90;;;;;;5074771;28;19908;-87
2021/01/05 03:20:31;;;;;;;;;;;2.70;99.90;;;;;;5108995;28;19911;-86
2021/01/05 03:23:01;;;;;;;;;;;2.70;99.90;;;;;;5107464;28;19920;-86
2021/01/05 03:25:34;;;;;;;;;;;2.70;99.90;;;;;;5110655;28;19912;-86
2021/01/05 03:28:01;;;;;;;;;;;2.70;99.90;;;;;;5114326;28;19918;-86
2021/01/05 03:30:29;;;;;;;;;;;2.70;99.90;;;;;;5113154;28;20089;-86
2021/01/05 03:33:16;;;;;;;;;;;2.70;99.90;;;;;;5114024;28;19916;-86
2021/01/05 03:35:44;;;;;;;;;;;2.70;99.90;;;;;;5110198;28;19911;-86
2021/01/05 03:38:12;;;;;;;;;;;2.70;99.90;;;;;;5113442;28;19912;-87
2021/01/05 03:40:41;;;;;;;;;;;2.70;99.90;;;;;;5113198;28;19908;-86
2021/01/05 03:43:12;;;;;;;;;;;2.70;99.90;;;;;;5114260;28;19946;-86
2021/01/05 03:45:37;;;;;;;;;;;2.70;99.90;;;;;;5112980;28;19915;-86
2021/01/05 03:48:12;;;;;;;;;;;2.70;99.90;;;;;;5114862;28;19908;-86
2021/01/05 03:50:40;;;;;;;;;;;2.70;99.90;;;;;;5114605;28;19911;-85
2021/01/05 03:53:08;;;;;;;;;;;2.70;99.90;;;;;;5114427;28;19912;-86
2021/01/05 03:55:42;;;;;;;;;;;2.70;99.90;;;;;;5112642;28;19987;-87
2021/01/05 03:58:10;;;;;;;;;;;2.70;99.90;;;;;;5116901;28;20379;-87
2021/01/05 04:00:43;;;;;;;;;;;2.70;99.90;;;;;;5117204;28;20371;-86
2021/01/05 04:03:09;;;;;;;;;;;2.70;99.90;;;;;;5116758;28;19912;-86
2021/01/05 04:05:38;;;;;;;;;;;2.70;99.90;;;;;;5112024;28;19914;-87
2021/01/05 04:08:06;;;;;;;;;;;2.70;99.90;;;;;;5116277;28;19907;-86
2021/01/05 04:10:32;;;;;;;;;;;2.70;99.90;;;;;;5117754;28;20368;-87
2021/01/05 04:13:03;;;;;;;;;;;2.70;99.90;;;;;;5111425;28;19922;-87
2021/01/05 04:15:34;;;;;;;;;;;2.70;99.90;;;;;;5116760;28;19912;-86
2021/01/05 04:18:03;;;;;;;;;;;2.70;99.90;;;;;;5110942;28;19943;-86
2021/01/05 04:20:34;;;;;;;;;;;2.70;99.90;;;;;;5116280;28;19908;-87
2021/01/05 04:23:07;;;;;;;;;;;2.70;99.90;;;;;;5116685;28;20284;-87
2021/01/05 04:25:40;;;;;;;;;;;2.70;99.90;;;;;;5116605;28;19908;-86
2021/01/05 04:28:08;;;;;;;;;;;2.70;99.90;;;;;;5116002;28;20399;-86
2021/01/05 04:30:40;;;;;;;;;;;2.70;99.90;;;;;;5112305;28;19999;-87
2021/01/05 04:33:15;;;;;;;;;;;2.70;99.90;;;;;;5110778;28;19919;-86
2021/01/05 04:35:44;;;;;;;;;;;2.70;99.90;;;;;;5116602;28;20328;-87
2021/01/05 04:38:20;;;;;;;;;;;2.70;99.90;;;;;;5117864;28;19908;-86
2021/01/05 04:40:51;;;;;;;;;;;2.70;99.90;;;;;;5112943;28;19907;-88
2021/01/05 04:43:40;;;;;;;;;;;2.70;99.90;;;;;;5112816;28;19915;-87
2021/01/05 04:46:12;;;;;;;;;;;2.70;99.90;;;;;;5115976;28;19952;-87
2021/01/05 04:48:43;;;;;;;;;;;2.70;99.90;;;;;;5117218;28;19919;-87
2021/01/05 04:51:20;;;;;;;;;;;2.70;99.90;;;;;;5116227;28;19907;-87
2021/01/05 04:54:12;;;;;;;;;;;2.70;99.90;;;;;;5109497;28;19960;-87
2021/01/05 04:56:53;;;;;;;;;;;2.70;99.90;;;;;;5101972;28;20383;-86
2021/01/05 04:59:23;;;;;;;;;;;2.70;99.90;;;;;;5113960;28;19908;-86
2021/01/05 05:01:59;;;;;;;;;;;2.70;99.90;;;;;;5110679;28;19907;-87
2021/01/05 05:04:33;;;;;;;;;;;2.70;99.90;;;;;;5115145;28;19912;-86
2021/01/05 05:07:10;;;;;;;;;;;2.70;99.90;;;;;;5115524;28;19915;-87
2021/01/05 05:09:53;;;;;;;;;;;2.70;99.90;;;;;;5115809;28;19908;-86
2021/01/05 05:12:25;;;;;;;;;;;2.70;99.90;;;;;;5115754;28;20356;-86
2021/01/05 05:14:55;;;;;;;;;;;2.70;99.90;;;;;;5115203;28;19912;-86
2021/01/05 05:17:31;;;;;;;;;;;2.70;99.90;;;;;;5115690;28;19908;-86
2021/01/05 05:20:06;;;;;;;;;;;2.70;99.90;;;;;;5110387;28;19914;-87
2021/01/05 05:22:44;;;;;;;;;;;2.70;99.90;;;;;;5121015;27;19919;-86
2021/01/05 05:25:28;;;;;;;;;;;2.70;99.90;;;;;;5118557;27;19911;-86
2021/01/05 05:28:03;;;;;;;;;;;2.70;99.90;;;;;;5119287;27;19914;-87
2021/01/05 05:30:34;;;;;;;;;;;2.70;99.90;;;;;;5118891;27;20474;-87
2021/01/05 05:33:05;;;;;;;;;;;2.60;99.90;;;;;;5118886;27;19917;-86
2021/01/05 05:35:38;;;;;;;;;;;2.70;99.90;;;;;;5136674;27;19954;-87
2021/01/05 05:38:22;;;;;;;;;;;2.60;99.90;;;;;;5119330;27;19954;-86
2021/01/05 05:40:50;;;;;;;;;;;2.70;99.90;;;;;;5120431;27;20412;-86
2021/01/05 05:43:35;;;;;;;;;;;2.60;99.90;;;;;;5118627;27;19934;-87
2021/01/05 05:46:11;;;;;;;;;;;2.70;99.90;;;;;;5118031;27;20005;-87
2021/01/05 05:48:43;;;;;;;;;;;2.70;99.90;;;;;;5137027;27;19907;-87
2021/01/05 05:51:19;;;;;;;;;;;2.70;99.90;;;;;;5118489;27;19913;-86
2021/01/05 05:53:57;;;;;;;;;;;2.70;99.90;;;;;;5136923;27;19968;-87
2021/01/05 05:56:43;;;;;;;;;;;2.60;99.90;;;;;;5118582;27;19907;-87
2021/01/05 05:59:11;;;;;;;;;;;2.70;99.90;;;;;;5118593;27;19986;-87
2021/01/05 06:01:39;;;;;;;;;;;2.70;99.90;;;;;;5131481;27;20368;-87
2021/01/05 06:04:07;;;;;;;;;;;2.70;99.90;;;;;;5136885;27;19994;-88
2021/01/05 06:06:39;;;;;;;;;;;2.70;99.90;;;;;;5118537;27;19930;-87
2021/01/05 06:09:08;;;;;;;;;;;2.70;99.90;;;;;;5117618;27;19958;-87
2021/01/05 06:11:34;;;;;;;;;;;2.70;99.90;;;;;;5124885;27;19907;-87
2021/01/05 06:14:08;;;;;;;;;;;2.70;99.90;;;;;;5152279;27;19916;-87
2021/01/05 06:16:36;;;;;;;;;;;2.70;99.90;;;;;;5136641;27;21082;-87
2021/01/05 06:19:07;;;;;;;;;;;2.80;99.90;;;;;;5134728;27;19911;-87
2021/01/05 06:21:36;;;;;;;;;;;2.80;99.90;;;;;;5135231;27;19914;-87
2021/01/05 06:24:04;;;;;;;;;;;2.80;99.90;;;;;;5117020;27;20382;-87
2021/01/05 06:26:36;;;;;;;;;;;2.80;99.90;;;;;;5134763;27;19912;-87
2021/01/05 06:29:01;;;;;;;;;;;2.80;99.90;;;;;;5135855;27;19908;-86
2021/01/05 06:31:40;;;;;;;;;;;2.80;99.90;;;;;;5130436;27;19907;-86
2021/01/05 06:34:10;;;;;;;;;;;2.80;99.90;;;;;;5118200;27;19955;-87
2021/01/05 06:36:38;;;;;;;;;;;2.80;99.90;;;;;;5114824;27;19915;-87
2021/01/05 06:39:06;;;;;;;;;;;2.80;99.90;;;;;;5117711;27;19907;-86
2021/01/05 06:41:38;;;;;;;;;;;2.80;99.90;;;;;;5131778;27;19907;-86
2021/01/05 06:44:07;;;;;;;;;;;2.80;99.90;;;;;;5113117;28;19958;-86
2021/01/05 06:46:38;;;;;;;;;;;2.90;99.90;;;;;;5112743;28;19908;-86
2021/01/05 06:49:07;;;;;;;;;;;2.80;99.90;;;;;;5093309;28;20307;-86
2021/01/05 06:51:36;;;;;;;;;;;2.80;99.90;;;;;;5093785;28;19966;-86
2021/01/05 06:54:02;;;;;;;;;;;2.80;99.90;;;;;;5095934;28;19920;-86
2021/01/05 06:56:30;;;;;;;;;;;2.80;99.90;;;;;;5095839;28;19916;-86
2021/01/05 06:58:55;;;;;;;;;;;2.80;99.90;;;;;;5093079;28;19908;-86
2021/01/05 07:01:27;;;;;;;;;;;2.90;99.90;;;;;;5113321;28;19915;-86
2021/01/05 07:03:55;;;;;;;;;;;2.80;99.90;;;;;;5093359;28;19957;-86
2021/01/05 07:06:29;;;;;;;;;;;2.80;99.90;;;;;;5113185;28;20040;-87
2021/01/05 07:09:03;;;;;;;;;;;2.80;99.90;;;;;;5109095;27;19908;-86
2021/01/05 07:11:33;;;;;;;;;;;2.80;99.90;;;;;;5116717;27;19991;-86
2021/01/05 07:14:06;;;;;;;;;;;2.90;99.90;;;;;;5133930;27;19973;-86
2021/01/05 07:16:38;;;;;;;;;;;2.90;99.90;;;;;;5131329;27;20002;-86
2021/01/05 07:19:04;;;;;;;;;;;2.90;99.90;;;;;;5117041;28;20003;-86
2021/01/05 07:21:37;;;;;;;;;;;2.90;99.90;;;;;;5134467;27;19915;-86
2021/01/05 07:24:03;;;;;;;;;;;2.90;99.90;;;;;;5115499;28;19964;-85
2021/01/05 07:26:35;;;;;;;;;;;2.90;99.90;;;;;;5116993;28;19968;-86
2021/01/05 07:29:02;;;;;;;;;;;2.90;99.90;;;;;;5135011;28;19911;-86
2021/01/05 07:31:30;;;;;;;;;;;2.90;99.90;;;;;;5135310;28;19907;-85
2021/01/05 07:33:59;;;;;;;;;;;2.90;99.90;;;;;;5116703;28;19966;-86
2021/01/05 07:36:44;;;;;;;;;;;2.90;99.90;;;;;;5133471;28;20365;-86
2021/01/05 07:39:14;;;;;;;;;;;2.90;99.90;;;;;;5133665;28;19915;-86
2021/01/05 07:41:46;;;;;;;;;;;2.90;99.90;;;;;;5116672;28;19935;-86
2021/01/05 07:44:14;;;;;;;;;;;2.90;99.90;;;;;;5112306;28;19908;-85
2021/01/05 07:46:45;;;;;;;;;;;3.00;99.90;;;;;;5130430;28;20017;-87
2021/01/05 07:49:12;;;;;;;;;;;3.00;99.90;;;;;;5116289;28;20424;-86
2021/01/05 07:51:46;;;;;;;;;;;3.00;99.90;;;;;;5116443;28;19911;-87
2021/01/05 07:54:20;;;;;;;;;;;3.00;99.90;;;;;;5112611;28;19938;-86
2021/01/05 07:56:46;;;;;;;;;;;3.00;99.90;;;;;;5116667;28;19908;-86
2021/01/05 07:59:18;;;;;;;;;;;3.00;99.90;;;;;;5129445;28;19915;-85
2021/01/05 08:01:49;;;;;;;;;;;3.00;99.90;;;;;;5134868;28;19912;-85
2021/01/05 08:04:23;;;;;;;;;;;3.00;99.90;;;;;;5133576;28;20401;-85
2021/01/05 08:06:52;;;;;;;;;;;3.00;99.90;;;;;;5116462;28;20396;-86
2021/01/05 08:09:23;;;;;;;;;;;3.00;99.90;;;;;;5129818;28;20359;-87
2021/01/05 08:11:54;;;;;;;;;;;3.00;99.90;;;;;;5116128;28;20015;-87
2021/01/05 08:14:30;;;;;;;;;;;3.00;99.90;;;;;;5116493;28;19912;-84
2021/01/05 08:16:58;;;;;;;;;;;3.00;99.90;;;;;;5116178;28;20367;-86
2021/01/05 08:19:29;;;;;;;;;;;3.00;99.90;;;;;;5129307;28;19915;-87
2021/01/05 08:22:00;;;;;;;;;;;3.00;99.90;;;;;;5116404;28;19975;-86
2021/01/05 08:24:31;;;;;;;;;;;3.00;99.90;;;;;;5128690;28;20390;-87
2021/01/05 08:27:02;;;;;;;;;;;3.00;99.90;;;;;;5134341;28;19961;-86
2021/01/05 08:29:55;;;;;;;;;;;3.00;99.90;;;;;;5133240;28;19914;-87
2021/01/05 08:32:26;;;;;;;;;;;3.00;99.90;;;;;;5115942;28;19934;-86
2021/01/05 08:34:58;;;;;;;;;;;3.00;99.90;;;;;;5118410;27;19951;-87
2021/01/05 08:37:23;;;;;;;;;;;3.00;99.90;;;;;;5119598;27;19911;-83
2021/01/05 08:39:51;;;;;;;;;;;3.00;99.90;;;;;;5136407;27;20006;-84
2021/01/05 08:42:22;;;;;;;;;;;3.00;99.90;;;;;;5137960;27;19907;-84
2021/01/05 08:44:50;;;;;;;;;;;3.00;99.90;;;;;;5136864;27;20295;-84
2021/01/05 08:47:19;;;;;;;;;;;3.10;99.90;;;;;;5132207;27;19908;-86
2021/01/05 08:49:47;;;;;;;;;;;3.00;99.90;;;;;;5119392;27;19908;-86
2021/01/05 08:52:16;;;;;;;;;;;3.10;99.90;;;;;;5137181;27;20001;-85
2021/01/05 08:54:47;;;;;;;;;;;3.10;99.90;;;;;;5132549;27;19916;-85
2021/01/05 08:57:17;;;;;;;;;;;3.10;99.90;;;;;;5054258;28;19909;-85
2021/01/05 08:59:45;;;;;;;;;;;3.10;99.90;;;;;;5053793;28;20423;-85
2021/01/05 09:02:17;;;;;;;;;;;3.20;99.90;;;;;;5054129;28;19963;-85
2021/01/05 09:04:48;;;;;;;;;;;3.20;99.90;;;;;;5054051;28;19909;-85
2021/01/05 09:07:24;;;;;;;;;;;3.20;99.90;;;;;;5053619;28;20324;-85
2021/01/05 09:09:55;;;;;;;;;;;3.20;99.90;;;;;;5049466;28;19913;-85
2021/01/05 09:12:21;;;;;;;;;;;3.20;99.90;;;;;;5049521;28;19912;-86
2021/01/05 09:14:56;;;;;;;;;;;3.20;99.90;;;;;;5052975;28;20465;-85
2021/01/05 09:17:22;;;;;;;;;;;3.20;99.90;;;;;;5050818;28;19909;-84
2021/01/05 09:19:55;;;;;;;;;;;3.30;99.90;;;;;;5053313;28;19908;-85
2021/01/05 09:22:21;;;;;;;;;;;3.20;99.90;;;;;;5049249;28;19944;-85
2021/01/05 09:24:50;;;;;;;;;;;3.20;99.90;;;;;;5036632;28;19967;-85
2021/01/05 09:27:21;;;;;;;;;;;3.20;99.90;;;;;;5066598;27;19962;-85
2021/01/05 09:29:47;;;;;;;;;;;3.30;99.90;;;;;;5114234;27;19943;-85
2021/01/05 09:32:25;;;;;;;;;;;3.30;99.90;;;;;;5136656;27;19915;-85
2021/01/05 09:34:56;;;;;;;;;;;3.30;99.90;;;;;;5131986;27;20305;-85
2021/01/05 09:37:25;;;;;;;;;;;3.30;99.90;;;;;;5118207;27;19907;-85
2021/01/05 09:39:54;;;;;;;;;;;3.30;99.90;;;;;;5118387;27;20006;-85
2021/01/05 09:42:25;;;;;;;;;;;3.30;99.90;;;;;;5131534;27;20428;-85
2021/01/05 09:44:50;;;;;;;;;;;3.40;99.90;;;;;;5135454;27;19915;-85
2021/01/05 09:47:22;;;;;;;;;;;3.40;99.90;;;;;;5130493;27;19916;-85
2021/01/05 09:49:54;;;;;;;;;;;3.40;99.90;;;;;;5117497;27;19907;-86
2021/01/05 09:52:24;;;;;;;;;;;3.40;99.90;;;;;;5117977;27;19922;-85
2021/01/05 09:54:59;;;;;;;;;;;3.40;99.90;;;;;;5052907;28;20011;-85
2021/01/05 09:57:27;;;;;;;;;;;3.30;99.90;;;;;;5036739;28;19952;-84
2021/01/05 09:59:52;;;;;;;;;;;3.30;99.90;;;;;;5052126;28;19916;-85
2021/01/05 10:02:21;;;;;;;;;;;3.30;99.90;;;;;;5050164;28;19909;-85
2021/01/05 10:04:49;;;;;;;;;;;3.40;99.90;;;;;;5050497;28;20311;-85
2021/01/05 10:07:20;;;;;;;;;;;3.30;99.90;;;;;;5052798;28;19959;-85
2021/01/05 10:09:53;;;;;;;;;;;3.30;99.90;;;;;;5052822;28;20421;-85
2021/01/05 10:12:22;;;;;;;;;;;3.30;99.90;;;;;;5052777;28;19960;-85
2021/01/05 10:14:50;;;;;;;;;;;3.30;99.90;;;;;;5052722;28;19913;-85
2021/01/05 10:17:16;;;;;;;;;;;3.30;99.90;;;;;;5052736;28;19909;-85
2021/01/05 10:19:46;;;;;;;;;;;3.30;99.90;;;;;;5049876;28;19909;-85
2021/01/05 10:22:17;;;;;;;;;;;3.40;99.90;;;;;;5052673;28;19909;-85
2021/01/05 10:24:47;;;;;;;;;;;3.40;99.90;;;;;;5059299;27;19908;-86
2021/01/05 10:27:16;;;;;;;;;;;3.40;99.90;;;;;;5117606;27;19908;-85
2021/01/05 10:29:50;;;;;;;;;;;3.40;99.90;;;;;;5135272;27;19908;-85
2021/01/05 10:32:18;;;;;;;;;;;3.40;99.90;;;;;;5117220;27;19915;-85
2021/01/05 10:34:49;;;;;;;;;;;3.40;99.90;;;;;;5035342;28;20055;-85
2021/01/05 10:37:15;;;;;;;;;;;3.40;99.90;;;;;;5052169;28;20000;-86
2021/01/05 10:39:43;;;;;;;;;;;3.40;99.90;;;;;;5047441;28;20474;-85
2021/01/05 10:42:12;;;;;;;;;;;3.40;99.90;;;;;;5047993;28;19913;-86
2021/01/05 10:44:40;;;;;;;;;;;3.50;99.90;;;;;;5051916;28;19915;-85
2021/01/05 10:47:14;;;;;;;;;;;3.50;99.90;;;;;;5047925;28;19916;-85
2021/01/05 10:49:45;;;;;;;;;;;3.50;99.90;;;;;;5052277;28;19913;-85
2021/01/05 10:52:16;;;;;;;;;;;3.50;99.90;;;;;;5052635;28;19913;-85
2021/01/05 10:54:47;;;;;;;;;;;3.50;99.90;;;;;;5051874;28;19956;-85
2021/01/05 10:57:12;;;;;;;;;;;3.60;99.90;;;;;;5049253;28;19971;-85
2021/01/05 10:59:53;;;;;;;;;;;3.60;99.90;;;;;;5088287;27;20350;-86
2021/01/05 11:02:26;;;;;;;;;;;3.50;99.90;;;;;;5113769;27;19920;-86
2021/01/05 11:04:58;;;;;;;;;;;3.50;99.90;;;;;;5112229;28;19907;-84
2021/01/05 11:07:29;;;;;;;;;;;3.50;99.90;;;;;;5113104;27;20360;-85
2021/01/05 11:10:05;;;;;;;;;;;3.50;99.90;;;;;;5135180;27;19995;-86
2021/01/05 11:12:45;;;;;;;;;;;3.50;99.90;;;;;;5134823;27;20302;-85
2021/01/05 11:15:12;;;;;;;;;;;3.50;99.90;;;;;;5116598;28;19915;-84
2021/01/05 11:17:44;;;;;;;;;;;3.60;99.90;;;;;;5135045;27;20352;-85
2021/01/05 11:20:16;;;;;;;;;;;3.60;99.90;;;;;;5131023;27;20287;-84
2021/01/05 11:22:42;;;;;;;;;;;3.60;99.90;;;;;;5116264;28;19919;-87
2021/01/05 11:25:19;;;;;;;;;;;3.60;99.90;;;;;;5112367;28;19908;-87
2021/01/05 11:27:49;;;;;;;;;;;3.60;99.90;;;;;;5132562;28;19963;-86
2021/01/05 11:30:23;;;;;;;;;;;3.60;99.90;;;;;;5133886;28;20424;-86
2021/01/05 11:32:51;;;;;;;;;;;3.60;99.90;;;;;;5134766;28;19935;-86
2021/01/05 11:35:22;;;;;;;;;;;3.60;99.90;;;;;;5129557;28;20357;-87
2021/01/05 11:38:15;;;;;;;;;;;3.60;99.90;;;;;;5133467;28;19912;-87
2021/01/05 11:40:45;;;;;;;;;;;3.60;99.90;;;;;;5134893;28;19908;-87
2021/01/05 11:43:14;;;;;;;;;;;3.60;99.90;;;;;;5134934;28;19907;-86
2021/01/05 11:45:50;;;;;;;;;;;3.70;99.90;;;;;;5111320;28;19911;-86
2021/01/05 11:48:16;;;;;;;;;;;3.60;99.90;;;;;;5134751;28;20378;-85
2021/01/05 11:50:45;;;;;;;;;;;3.70;99.90;;;;;;5128547;28;19943;-85
2021/01/05 11:53:17;;;;;;;;;;;3.70;99.90;;;;;;5134640;28;20380;-86
2021/01/05 11:55:42;;;;;;;;;;;3.70;99.90;;;;;;5133831;28;19972;-86
2021/01/05 11:58:13;;;;;;;;;;;3.70;99.90;;;;;;5130090;28;19943;-86
2021/01/05 12:00:48;;;;;;;;;;;3.70;99.90;;;;;;5133525;28;19907;-85
2021/01/05 12:03:19;;;;;;;;;;;3.70;99.90;;;;;;5116432;28;19907;-86
2021/01/05 12:05:50;;;;;;;;;;;3.70;99.90;;;;;;5112606;28;19956;-85
2021/01/05 12:08:18;;;;;;;;;;;3.70;99.90;;;;;;5112792;27;19908;-86
2021/01/05 12:10:49;;;;;;;;;;;3.70;99.90;;;;;;5133363;27;20363;-86
2021/01/05 12:13:18;;;;;;;;;;;3.70;99.90;;;;;;5120739;27;19965;-86
2021/01/05 12:15:49;;;;;;;;;;;3.70;99.90;;;;;;5137709;27;19961;-86
2021/01/05 12:18:18;;;;;;;;;;;3.80;99.90;;;;;;5120173;27;19908;-85
2021/01/05 12:20:50;;;;;;;;;;;3.80;99.90;;;;;;5138234;27;19930;-86
2021/01/05 12:23:18;;;;;;;;;;;3.70;99.90;;;;;;5115890;27;19930;-86
2021/01/05 12:25:44;;;;;;;;;;;3.70;99.90;;;;;;5137350;27;20056;-85
2021/01/05 12:28:12;;;;;;;;;;;3.70;99.90;;;;;;5136691;27;20385;-86
2021/01/05 12:30:48;;;;;;;;;;;3.70;99.90;;;;;;5137557;27;19956;-85
2021/01/05 12:33:19;;;;;;;;;;;3.70;99.90;;;;;;5119766;27;19937;-86
2021/01/05 12:35:48;;;;;;;;;;;3.70;99.90;;;;;;5119756;27;20337;-86
2021/01/05 12:38:24;;;;;;;;;;;3.70;99.90;;;;;;5120391;27;20317;-86
2021/01/05 12:40:49;;;;;;;;;;;3.80;99.90;;;;;;5119781;27;19908;-84
2021/01/05 12:43:17;;;;;;;;;;;3.80;99.90;;;;;;5038328;28;19908;-86
2021/01/05 12:45:48;;;;;;;;;;;3.80;99.90;;;;;;5054920;28;19909;-86
2021/01/05 12:48:13;;;;;;;;;;;3.80;99.90;;;;;;5054646;28;19916;-86
2021/01/05 12:50:41;;;;;;;;;;;3.80;99.90;;;;;;5054636;28;19909;-87
2021/01/05 12:53:15;;;;;;;;;;;3.80;99.90;;;;;;5054890;28;20357;-86
2021/01/05 12:55:46;;;;;;;;;;;3.80;99.90;;;;;;5052718;28;19909;-86
2021/01/05 12:58:12;;;;;;;;;;;3.80;99.90;;;;;;5059302;28;20015;-86
2021/01/05 13:00:41;;;;;;;;;;;3.80;99.90;;;;;;5052469;28;20004;-86
2021/01/05 13:03:09;;;;;;;;;;;3.90;99.90;;;;;;5054004;28;19908;-85
2021/01/05 13:05:35;;;;;;;;;;;3.90;99.90;;;;;;5057040;28;19909;-86
2021/01/05 13:08:06;;;;;;;;;;;3.90;99.90;;;;;;5055095;28;19909;-85
2021/01/05 13:10:37;;;;;;;;;;;3.90;99.90;;;;;;5052997;28;19972;-86
2021/01/05 13:13:02;;;;;;;;;;;3.90;99.90;;;;;;5040245;27;19942;-86
2021/01/05 13:15:37;;;;;;;;;;;3.90;99.90;;;;;;5117496;27;19933;-87
2021/01/05 13:18:06;;;;;;;;;;;3.90;99.90;;;;;;5137331;27;20387;-85
2021/01/05 13:20:39;;;;;;;;;;;3.90;99.90;;;;;;5120389;27;19908;-87
2021/01/05 13:23:08;;;;;;;;;;;4.00;99.90;;;;;;5134931;27;19919;-87
2021/01/05 13:25:38;;;;;;;;;;;4.00;99.90;;;;;;5117377;27;19912;-86
2021/01/05 13:28:09;;;;;;;;;;;4.00;99.90;;;;;;5114880;27;19953;-85
2021/01/05 13:30:35;;;;;;;;;;;4.00;99.90;;;;;;5137284;27;19915;-86
2021/01/05 13:33:03;;;;;;;;;;;4.00;99.90;;;;;;5120081;27;19915;-85
2021/01/05 13:35:35;;;;;;;;;;;3.90;99.90;;;;;;5135654;27;19915;-86
2021/01/05 13:38:08;;;;;;;;;;;4.00;99.90;;;;;;5136596;27;20360;-86
2021/01/05 13:40:40;;;;;;;;;;;3.90;99.90;;;;;;5135071;27;19990;-86
2021/01/05 13:43:09;;;;;;;;;;;4.00;99.90;;;;;;5119841;27;19915;-86
2021/01/05 13:45:37;;;;;;;;;;;3.90;99.90;;;;;;5119721;27;20016;-87
2021/01/05 13:48:08;;;;;;;;;;;3.90;99.90;;;;;;5141219;27;19914;-86
2021/01/05 13:50:41;;;;;;;;;;;3.90;99.90;;;;;;5121651;27;19915;-87
2021/01/05 13:53:09;;;;;;;;;;;3.90;99.90;;;;;;5121758;27;19922;-87
2021/01/05 13:55:42;;;;;;;;;;;3.90;99.90;;;;;;5119196;27;19931;-85
2021/01/05 13:58:15;;;;;;;;;;;3.90;99.90;;;;;;5120752;27;19908;-85
2021/01/05 14:00:44;;;;;;;;;;;3.90;99.90;;;;;;5134525;27;20032;-85
2021/01/05 14:03:09;;;;;;;;;;;3.80;99.90;;;;;;5137233;27;19907;-86
2021/01/05 14:05:44;;;;;;;;;;;3.80;99.90;;;;;;5133276;27;19956;-85
2021/01/05 14:08:13;;;;;;;;;;;3.80;99.90;;;;;;5118619;27;19911;-85
2021/01/05 14:10:55;;;;;;;;;;;3.80;99.90;;;;;;5135427;27;19907;-85
2021/01/05 14:13:20;;;;;;;;;;;3.80;99.90;;;;;;5117037;27;19985;-87
2021/01/05 14:15:51;;;;;;;;;;;3.80;99.90;;;;;;5131535;27;19916;-86
2021/01/05 14:18:22;;;;;;;;;;;3.80;99.90;;;;;;5119049;27;19998;-85
2021/01/05 14:20:50;;;;;;;;;;;3.80;99.90;;;;;;5114425;27;19958;-85
2021/01/05 14:23:18;;;;;;;;;;;3.80;99.90;;;;;;5117963;27;19962;-86
2021/01/05 14:25:49;;;;;;;;;;;3.80;99.90;;;;;;5131338;27;19950;-85
2021/01/05 14:28:20;;;;;;;;;;;3.80;99.90;;;;;;5113709;27;19916;-86
2021/01/05 14:31:06;;;;;;;;;;;3.70;99.90;;;;;;5134586;27;20288;-86
2021/01/05 14:33:34;;;;;;;;;;;3.80;99.90;;;;;;5113377;27;19967;-86
2021/01/05 14:36:02;;;;;;;;;;;3.80;99.90;;;;;;5130946;27;19911;-85
2021/01/05 14:38:30;;;;;;;;;;;3.70;99.90;;;;;;5119079;27;19907;-85
2021/01/05 14:40:59;;;;;;;;;;;3.70;99.90;;;;;;5136294;27;19972;-86
2021/01/05 14:43:30;;;;;;;;;;;3.70;99.90;;;;;;5135422;27;19998;-85
2021/01/05 14:45:58;;;;;;;;;;;3.70;99.90;;;;;;5134857;27;20375;-86
2021/01/05 14:48:30;;;;;;;;;;;3.70;99.90;;;;;;5136235;27;20022;-86
2021/01/05 14:51:14;;;;;;;;;;;3.70;99.90;;;;;;5132513;27;20009;-86
2021/01/05 14:53:56;;;;;;;;;;;3.70;99.90;;;;;;5117026;27;19964;-86
2021/01/05 14:56:26;;;;;;;;;;;3.70;99.90;;;;;;5135289;27;19907;-85